CYDP

Nain Airport

Nain, Canada
METAR CYDP 180000Z 28015G24KT 15SM DRSN SKC M25/M33 A2993 RMK LAST STAFFED OB/ NEXT 180900 SLP137
Observed Flight Rules
Feb-18 @ 00:00 UTC (7 hours ago) Visual Flight Rules
Wind Visibility Clouds Conditions
280° at 15 knots
 Gusting to 24 knots
15 miles
  • Clear skies
  • Low drifting
  • Snow
Temperatures Readings
Current -25°C / -13°F
Dewpoint -33°C / -27°F
Humidity 47%
Altimeter 29.93" Hg
Pressure 1013.7 hPa
Elevation 7
METAR CYDP 180000Z 28015G24KT 15SM DRSN SKC M25/M33 A2993 RMK LAST STAFFED OB/ NEXT 180900 SLP137
Observed Flight Rules
Feb-18 @ 00:00 UTC
(7 hours ago)
VFR
Wind Visibility
280° at 15 knots
 Gusting to 24 knots
15 miles
Clouds
  • Clear skies
Conditions
  • Low drifting
  • Snow
Temperature Dewpoint
-25°C / -13°F -33°C / -27°F
Humidity Altimeter Pressure
47% 29.93" Hg 1013.7 hPa